Home > Products > Valid Products > MTR

000
SAUS41 KCAR 061119
MTR40B
METAR K40B 061119Z AUTO 00000KT M19/M20 A3009 RMK AO1 SLP234
     T11851204 51008 P0000





000
SAUS41 KCAR 061058
MTRGNR
METAR KGNR 061056Z AUTO 32009KT M10/M14 A3007 RMK AO1 SLP211
T11001139





000
SAUS41 KCAR 061016
MTR40B
METAR K40B 061016Z AUTO 00000KT M18/M20 A3009 RMK AO1 SLP232
     T11811199 52008





000
SAUS41 KCAR 060957
MTRGNR
METAR KGNR 060956Z AUTO 00000KT M12/M14 A3009 RMK AO1 SLP219
T11171139





000
SAUS41 KCAR 060919
MTR40B
METAR K40B 060919Z AUTO 00000KT M18/M19 A3009 RMK AO1 SLP229
     T11751193 52009





000
SAUS41 KCAR 060858
MTRGNR
METAR KGNR 060856Z AUTO 33007KT M11/M13 A3008 RMK AO1 SLP213
T11061133 53017





000
SAUS41 KCAR 060819
MTR40B
METAR K40B 060819Z AUTO 00000KT M17/M19 A3007 RMK AO1 SLP221
     T11741194 51007





000
SAUS41 KCAR 060819
MTR40B
METAR K40B 060819Z AUTO 00000KT M17/M19 A3007 RMK AO1 SLP221
     T11741194 51007





000
SAUS41 KCAR 060757
MTRGNR
METAR KGNR 060756Z AUTO 32008G14KT M11/M14 A3005 RMK AO1 SLP203
T11061139





000
SAUS41 KCAR 060716
MTR40B
METAR K40B 060716Z AUTO VRB04KT M16/M18 A3007 RMK AO1 SLP220
     T11571175 53005





000
SAUS41 KCAR 060716
MTR40B
METAR K40B 060716Z AUTO VRB04KT M16/M18 A3007 RMK AO1 SLP220
     T11571175 53005





000
SAUS41 KCAR 060658
MTRGNR
METAR KGNR 060656Z AUTO 32009G17KT M11/M14 A3004 RMK AO1 SLP201
T11061144





000
SAUS41 KCAR 060658
MTRGNR
METAR KGNR 060656Z AUTO 32009G17KT M11/M14 A3004 RMK AO1 SLP201
T11061144





000
SAUS41 KCAR 060619
MTR40B
METAR K40B 060619Z AUTO VRB03KT M15/M16 A3006 RMK AO1 SLP215
     T11501165 11097 21163 52005 60001





000
SAUS41 KCAR 060557
MTRGNR
METAR KGNR 060556Z AUTO 32010G16KT M11/M14 A3002 RMK AO1 SLP195
T11111144 11072 21111 51013





000
SAUS41 KCAR 060557
MTRGNR
METAR KGNR 060556Z AUTO 32010G16KT M11/M14 A3002 RMK AO1 SLP195
T11111144 11072 21111 51013





000
SAUS41 KCAR 060519
MTR40B
METAR K40B 060519Z AUTO VRB02KT M16/M17 A3005 RMK AO1 SLP210
     T11571170 410051163 50004 P0000





000
SAUS41 KCAR 060458
MTRGNR
METAR KGNR 060456Z AUTO 31007KT M11/M14 A3002 RMK AO1 SLP191
T11061139 410111106





000
SAUS41 KCAR 060458
MTRGNR
METAR KGNR 060456Z AUTO 31007KT M11/M14 A3002 RMK AO1 SLP191
T11061139 410111106





000
SAUS41 KCAR 060416
MTR40B
METAR K40B 060416Z AUTO 00000KT M14/M16 A3005 RMK AO1 SLP210
     T11441159 51009 P0000





000
SAUS41 KCAR 060416
MTR40B
METAR K40B 060416Z AUTO 00000KT M14/M16 A3005 RMK AO1 SLP210
     T11441159 51009 P0000





000
SAUS41 KCAR 060357
MTRGNR
METAR KGNR 060356Z AUTO 32012G18KT M10/M14 A3000 RMK AO1 SLP186
T11001144





000
SAUS41 KCAR 060357
MTRGNR
METAR KGNR 060356Z AUTO 32012G18KT M10/M14 A3000 RMK AO1 SLP186
T11001144





000
SAUS41 KCAR 060319
MTR40B
METAR K40B 060319Z AUTO 00000KT M13/M15 A3004 RMK AO1 SLP206
     T11331151 53004





000
SAUS41 KCAR 060258
MTRGNR
METAR KGNR 060256Z AUTO 32012G19KT M10/M14 A2999 RMK AO1 SLP180
T11001139 51030





000
SAUS41 KCAR 060258
MTRGNR
METAR KGNR 060256Z AUTO 32012G19KT M10/M14 A2999 RMK AO1 SLP180
T11001139 51030





000
SAUS41 KCAR 060219
MTR40B
METAR K40B 060219Z AUTO 00000KT M12/M15 A3004 RMK AO1 SLP202
     T11181146 51003





000
SAUS41 KCAR 060157
MTRGNR
METAR KGNR 060156Z AUTO 31010G26KT 270V330 M09/M12 A2996 RMK AO1 PK
WND 33034/0125 SLP169 T10891122





000
SAUS41 KCAR 060157
MTRGNR
METAR KGNR 060156Z AUTO 31010G26KT 270V330 M09/M12 A2996 RMK AO1 PK
WND 33034/0125 SLP169 T10891122





000
SAUS41 KCAR 060116
MTR40B
METAR K40B 060116Z AUTO VRB02KT M11/M15 A3002 RMK AO1 SLP198
     T11081150 50015





000
SAUS41 KCAR 060116
MTR40B
METAR K40B 060116Z AUTO VRB02KT M11/M15 A3002 RMK AO1 SLP198
     T11081150 50015





000
SAUS41 KCAR 060058
MTRGNR
METAR KGNR 060056Z AUTO 33016G35KT M08/M12 A2993 RMK AO1 PK WND
32035/0047 SLP159 T10781117





000
SAUS41 KCAR 060058
MTRGNR
METAR KGNR 060056Z AUTO 33016G35KT M08/M12 A2993 RMK AO1 PK WND
32035/0047 SLP159 T10781117





000
SAUS41 KCAR 060019
MTR40B
METAR K40B 060019Z AUTO VRB03KT M10/M15 A3003 RMK AO1 SLP200
     T10971151 11055 21097 53009 P0000 60001





000
SAUS41 KCAR 060019
MTR40B
METAR K40B 060019Z AUTO VRB03KT M10/M15 A3003 RMK AO1 SLP200
     T10971151 11055 21097 53009 P0000 60001





000
SAUS41 KCAR 052357
MTRGNR
METAR KGNR 052356Z AUTO 32021G33KT M07/M11 A2989 RMK AO1 PK WND
33033/2352 SLP146 60002 T10721111 11044 21072 58003





000
SAUS41 KCAR 052357
MTRGNR
METAR KGNR 052356Z AUTO 32021G33KT M07/M11 A2989 RMK AO1 PK WND
33033/2352 SLP146 60002 T10721111 11044 21072 58003





000
SAUS41 KCAR 052319
MTR40B
METAR K40B 052319Z AUTO VRB03KT M08/M14 A3003 RMK AO1 SLP196
     T10841143 53017 P0000





000
SAUS41 KCAR 052319
MTR40B
METAR K40B 052319Z AUTO VRB03KT M08/M14 A3003 RMK AO1 SLP196
     T10841143 53017 P0000





000
SAUS41 KCAR 052257
MTRGNR
METAR KGNR 052256Z AUTO 32018G28KT M07/M10 A2989 RMK AO1 PK WND
32028/2256 SLP144 T10671100





000
SAUS41 KCAR 052257
MTRGNR
METAR KGNR 052256Z AUTO 32018G28KT M07/M10 A2989 RMK AO1 PK WND
32028/2256 SLP144 T10671100





000
SAUS41 KCAR 052216
MTR40B
METAR K40B 052216Z AUTO 00000KT M08/M15 A2998 RMK AO1 SLP180
     T10811147 50008





000
SAUS41 KCAR 052216
MTR40B
METAR K40B 052216Z AUTO 00000KT M08/M15 A2998 RMK AO1 SLP180
     T10811147 50008





000
SAUS41 KCAR 052157
MTRGNR
METAR KGNR 052156Z AUTO 32010G18KT 280V340 M06/M11 A2990 RMK AO1
SLP149 T10611106





000
SAUS41 KCAR 052119
MTR40B
METAR K40B 052119Z AUTO VRB05G12KT M07/M14 A3000 RMK AO1 SLP188
     T10711140 55001





000
SAUS41 KCAR 052119
MTR40B
METAR K40B 052119Z AUTO VRB05G12KT M07/M14 A3000 RMK AO1 SLP188
     T10711140 55001





000
SAUS41 KCAR 052057
MTRGNR
METAR KGNR 052056Z AUTO 33012G22KT M06/M11 A2990 RMK AO1 SLP147
60002 T10561106 55005





000
SAUS41 KCAR 052016
MTR40B
METAR K40B 052016Z AUTO VRB04G10KT M06/M11 A2997 RMK AO1 SLP177
     T10591113 55015





000
SAUS41 KCAR 051958
MTRGNR
METAR KGNR 051956Z AUTO 34012G19KT M05/M09 A2988 RMK AO1 SLP140
P0001 T10501089





000
SAUS41 KCAR 051958
MTRGNR
METAR KGNR 051956Z AUTO 34012G19KT M05/M09 A2988 RMK AO1 SLP140
P0001 T10501089





000
SAUS41 KCAR 051916
MTR40B
METAR K40B 051916Z AUTO VRB02G11KT M06/M11 A2995 RMK AO1 PRESRR
     SLP169 T10581114 58029





000
SAUS41 KCAR 051857
MTRGNR
METAR KGNR 051856Z AUTO 32011G20KT M06/M07 A2986 RMK AO1 SLP133
P0001 T10561072





000
SAUS41 KCAR 051816
MTR40B
METAR K40B 051816Z AUTO 00000KT M06/M11 A3001 RMK AO1 SLP186
     T10551109 11031 21057 58019





000
SAUS41 KCAR 051816
MTR40B
METAR K40B 051816Z AUTO 00000KT M06/M11 A3001 RMK AO1 SLP186
     T10551109 11031 21057 58019





000
SAUS41 KCAR 051757
MTRGNR
METAR KGNR 051756Z AUTO 32010G19KT M04/M07 A2992 RMK AO1 SLP153
P0001 60005 T10441067 11022 21044 56028





000
SAUS41 KCAR 051757
MTRGNR
METAR KGNR 051756Z AUTO 32010G19KT M04/M07 A2992 RMK AO1 SLP153
P0001 60005 T10441067 11022 21044 56028





000
SAUS41 KCAR 051719
MTR40B
METAR K40B 051719Z AUTO VRB03KT M05/M11 A3002 RMK AO1 SLP192
     T10541111 58016





000
SAUS41 KCAR 051657
MTRGNR
METAR KGNR 051656Z AUTO 34009G14KT M04/M06 A2992 RMK AO1 SLP155
P0002 T10441061





000
SAUS41 KCAR 051657
MTRGNR
METAR KGNR 051656Z AUTO 34009G14KT M04/M06 A2992 RMK AO1 SLP155
P0002 T10441061





000
SAUS41 KCAR 051616
MTR40B
METAR K40B 051616Z AUTO VRB04KT M05/M11 A3004 RMK AO1 SLP197
     T10551110 58010





000
SAUS41 KCAR 051616
MTR40B
METAR K40B 051616Z AUTO VRB04KT M05/M11 A3004 RMK AO1 SLP197
     T10551110 58010





000
SAUS41 KCAR 051558
MTRGNR
METAR KGNR 051556Z AUTO 32006KT M04/M06 A2998 RMK AO1 SLP174 P0002
T10441056





000
SAUS41 KCAR 051519
MTR40B
METAR K40B 051519Z AUTO VRB03KT M05/M10 A3007 RMK AO1 SLP206
     T10511100 50001





000
SAUS41 KCAR 051457
MTRGNR
METAR KGNR 051456Z AUTO 34008KT M03/M07 A3001 RMK AO1 SLP181
T10331072 58008





000
SAUS41 KCAR 051457
MTRGNR
METAR KGNR 051456Z AUTO 34008KT M03/M07 A3001 RMK AO1 SLP181
T10331072 58008





000
SAUS41 KCAR 051419
MTR40B
METAR K40B 051419Z AUTO 00000KT M05/M09 A3007 RMK AO1 SLP207
     T10481094 50003





000
SAUS41 KCAR 051419
MTR40B
METAR K40B 051419Z AUTO 00000KT M05/M09 A3007 RMK AO1 SLP207
     T10481094 50003





000
SAUS41 KCAR 051358
MTRGNR
METAR KGNR 051356Z AUTO 32007G16KT M03/M08 A3003 RMK AO1 SLP189
T10281078





000
SAUS41 KCAR 051358
MTRGNR
METAR KGNR 051356Z AUTO 32007G16KT M03/M08 A3003 RMK AO1 SLP189
T10281078





000
SAUS41 KCAR 051316
MTR40B
METAR K40B 051316Z AUTO VRB04KT M04/M09 A3007 RMK AO1 SLP206
     T10451088 53004





000
SAUS41 KCAR 051316
MTR40B
METAR K40B 051316Z AUTO VRB04KT M04/M09 A3007 RMK AO1 SLP206
     T10451088 53004





000
SAUS41 KCAR 051257
MTRGNR
METAR KGNR 051256Z AUTO 34007KT M02/M08 A3002 RMK AO1 SLP183
T10221083





000
SAUS41 KCAR 051257
MTRGNR
METAR KGNR 051256Z AUTO 34007KT M02/M08 A3002 RMK AO1 SLP183
T10221083





000
SAUS41 KCAR 051216
MTR40B
METAR K40B 051216Z AUTO 00000KT M03/M07 A3007 RMK AO1 SLP206
     T10311075 11008 21032 53009





000
SAUS41 KCAR 051157
MTRGNR
METAR KGNR 051156Z AUTO 33009KT M02/M06 A3003 RMK AO1 SLP188
T10171061 11011 21017 53008





000
SAUS41 KCAR 051157
MTRGNR
METAR KGNR 051156Z AUTO 33009KT M02/M06 A3003 RMK AO1 SLP188
T10171061 11011 21017 53008





000
SAUS41 KCAR 051119
MTR40B
METAR K40B 051119Z AUTO 00000KT M03/M07 A3006 RMK AO1 SLP201
     T10311072 55000





000
SAUS41 KCAR 051119
MTR40B
METAR K40B 051119Z AUTO 00000KT M03/M07 A3006 RMK AO1 SLP201
     T10311072 55000





000
SAUS41 KCAR 051058
MTRGNR
METAR KGNR 051056Z AUTO 33006KT M02/M06 A3002 RMK AO1 SLP182
T10171061





000
SAUS41 KCAR 051058
MTRGNR
METAR KGNR 051056Z AUTO 33006KT M02/M06 A3002 RMK AO1 SLP182
T10171061





000
SAUS41 KCAR 051016
MTR40B
METAR K40B 051016Z AUTO 00000KT M03/M08 A3006 RMK AO1 SLP200
     T10271077 53003





000
SAUS41 KCAR 051016
MTR40B
METAR K40B 051016Z AUTO 00000KT M03/M08 A3006 RMK AO1 SLP200
     T10271077 53003





000
SAUS41 KCAR 050957
MTRGNR
METAR KGNR 050956Z AUTO 32005KT M02/M06 A3000 RMK AO1 SLP176
T10171061





000
SAUS41 KCAR 050916
MTR40B
METAR K40B 050916Z AUTO VRB02KT M02/M08 A3005 RMK AO1 SLP195
     T10201076 50004





000
SAUS41 KCAR 050858
MTRGNR
METAR KGNR 050856Z AUTO 33008KT M02/M06 A3001 RMK AO1 SLP178
T10171056 50003





000
SAUS41 KCAR 050858
MTRGNR
METAR KGNR 050856Z AUTO 33008KT M02/M06 A3001 RMK AO1 SLP178
T10171056 50003





000
SAUS41 KCAR 050819
MTR40B
METAR K40B 050819Z AUTO 00000KT M02/M07 A3006 RMK AO1 SLP198
     T10161070 51010





000
SAUS41 KCAR 050757
MTRGNR
METAR KGNR 050756Z AUTO 32010KT M02/M05 A3001 RMK AO1 SLP179
T10171050





000
SAUS41 KCAR 050716
MTR40B
METAR K40B 050716Z AUTO 00000KT M01/M07 A3005 RMK AO1 SLP195
     T10111070 52012





000
SAUS41 KCAR 050658
MTRGNR
METAR KGNR 050656Z AUTO VRB04KT M02/M05 A3002 RMK AO1 SLP182
T10171050





000
SAUS41 KCAR 050658
MTRGNR
METAR KGNR 050656Z AUTO VRB04KT M02/M05 A3002 RMK AO1 SLP182
T10171050





000
SAUS41 KCAR 050616
MTR40B
METAR K40B 050616Z AUTO VRB02KT M01/M06 A3003 RMK AO1 SLP188
     T10081063 10016 21008 52007





000
SAUS41 KCAR 050616
MTR40B
METAR K40B 050616Z AUTO VRB02KT M01/M06 A3003 RMK AO1 SLP188
     T10081063 10016 21008 52007





000
SAUS41 KCAR 050557
MTRGNR
METAR KGNR 050556Z AUTO VRB04KT M02/M05 A3000 RMK AO1 SLP173
T10171050 10011 21017 55007





000
SAUS41 KCAR 050557
MTRGNR
METAR KGNR 050556Z AUTO VRB04KT M02/M05 A3000 RMK AO1 SLP173
T10171050 10011 21017 55007





000
SAUS41 KCAR 050518
MTR40B
METAR K40B 050518Z AUTO VRB02G14KT M01/M06 A3003 RMK AO1 SLP185
     T10061063 400601006 51009





000
SAUS41 KCAR 050458
MTRGNR
METAR KGNR 050456Z AUTO VRB04KT M01/M06 A3000 RMK AO1 SLP172
T10111056 400721011





000
SAUS41 KCAR 050458
MTRGNR
METAR KGNR 050456Z AUTO VRB04KT M01/M06 A3000 RMK AO1 SLP172
T10111056 400721011





000
SAUS41 KCAR 050416
MTR40B
METAR K40B 050416Z AUTO 00000KT 00/M05 A3002 RMK AO1 SLP181
     T10051050 52004





000
SAUS41 KCAR 050416
MTR40B
METAR K40B 050416Z AUTO 00000KT 00/M05 A3002 RMK AO1 SLP181
     T10051050 52004





000
SAUS41 KCAR 050357
MTRGNR
METAR KGNR 050356Z AUTO VRB03KT M01/M05 A3000 RMK AO1 SLP175
T10061050





000
SAUS41 KCAR 050319
MTR40B
METAR K40B 050319Z AUTO VRB02KT 00/M05 A3001 RMK AO1 SLP179
     T10021052 52008





000
SAUS41 KCAR 050258
MTRGNR
METAR KGNR 050256Z AUTO 32003KT M01/M05 A3002 RMK AO1 SLP181
T10061050 53011





000
SAUS41 KCAR 050216
MTR40B
METAR K40B 050216Z AUTO VRB03KT 00/M04 A3000 RMK AO1 SLP174
     T00051044 51015





000
SAUS41 KCAR 050157
MTRGNR
METAR KGNR 050156Z AUTO VRB04KT 01/M04 A3001 RMK AO1 SLP176
T00061044





000
SAUS41 KCAR 050157
MTRGNR
METAR KGNR 050156Z AUTO VRB04KT 01/M04 A3001 RMK AO1 SLP176
T00061044





000
SAUS41 KCAR 050116
MTR40B
METAR K40B 050116Z AUTO VRB03KT 01/M04 A3000 RMK AO1 SLP175
     T00101038 51028





000
SAUS41 KCAR 050116
MTR40B
METAR K40B 050116Z AUTO VRB03KT 01/M04 A3000 RMK AO1 SLP175
     T00101038 51028





000
SAUS41 KCAR 050058
MTRGNR
METAR KGNR 050056Z AUTO 32008G16KT 01/M04 A3000 RMK AO1 SLP172
T00111039





000
SAUS41 KCAR 050058
MTRGNR
METAR KGNR 050056Z AUTO 32008G16KT 01/M04 A3000 RMK AO1 SLP172
T00111039





000
SAUS41 KCAR 050016
MTR40B
METAR K40B 050016Z AUTO 26006G12KT 190V340 02/M03 A2999 RMK AO1
     SLP170 T00151035 10052 20015 53032





000
SAUS41 KCAR 042357
MTRGNR
METAR KGNR 042356Z AUTO 31008G18KT 280V350 01/M03 A2999 RMK AO1
SLP169 T00111033 10072 20011 53026





000
SAUS41 KCAR 042357
MTRGNR
METAR KGNR 042356Z AUTO 31008G18KT 280V350 01/M03 A2999 RMK AO1
SLP169 T00111033 10072 20011 53026





000
SAUS41 KCAR 042319
MTR40B
METAR K40B 042319Z AUTO VRB03KT 02/M04 A2995 RMK AO1 SLP157
     T00231035 51031





000
SAUS41 KCAR 042319
MTR40B
METAR K40B 042319Z AUTO VRB03KT 02/M04 A2995 RMK AO1 SLP157
     T00231035 51031





000
SAUS41 KCAR 042258
MTRGNR
METAR KGNR 042256Z AUTO VRB04KT 02/M03 A2996 RMK AO1 SLP161
T00221028





000
SAUS41 KCAR 042258
MTRGNR
METAR KGNR 042256Z AUTO VRB04KT 02/M03 A2996 RMK AO1 SLP161
T00221028





000
SAUS41 KCAR 042216
MTR40B
METAR K40B 042216Z AUTO VRB05G15KT 03/M04 A2992 RMK AO1 SLP144
     T00281037 51026





000
SAUS41 KCAR 042216
MTR40B
METAR K40B 042216Z AUTO VRB05G15KT 03/M04 A2992 RMK AO1 SLP144
     T00281037 51026





000
SAUS41 KCAR 042157
MTRGNR
METAR KGNR 042156Z AUTO VRB03KT 03/M03 A2993 RMK AO1 SLP147
T00281028





000
SAUS41 KCAR 042119
MTR40B
METAR K40B 042119Z AUTO VRB05G14KT 03/M03 A2989 RMK AO1 SLP135
     T00331031 53020





000
SAUS41 KCAR 042057
MTRGNR
METAR KGNR 042056Z AUTO VRB05KT 03/M03 A2991 RMK AO1 SLP139
T00331033 53017





000
SAUS41 KCAR 042057
MTRGNR
METAR KGNR 042056Z AUTO VRB05KT 03/M03 A2991 RMK AO1 SLP139
T00331033 53017





000
SAUS41 KCAR 042019
MTR40B
METAR K40B 042019Z AUTO VRB06G21KT 04/M03 A2986 RMK AO1 PK WND
     25026/1925 SLP123 T00391033 51015





000
SAUS41 KCAR 041958
MTRGNR
METAR KGNR 041956Z AUTO 30008G17KT 04/M03 A2989 RMK AO1 SLP133
T00391028





000
SAUS41 KCAR 041916
MTR40B
METAR K40B 041916Z AUTO VRB06G20KT 04/M03 A2984 RMK AO1 SLP118
     T00451033 53007





000
SAUS41 KCAR 041916
MTR40B
METAR K40B 041916Z AUTO VRB06G20KT 04/M03 A2984 RMK AO1 SLP118
     T00451033 53007





000
SAUS41 KCAR 041857
MTRGNR
METAR KGNR 041856Z AUTO VRB05G17KT 06/M03 A2986 RMK AO1 PRESRR
SLP125 T00561033





000
SAUS41 KCAR 041857
MTRGNR
METAR KGNR 041856Z AUTO VRB05G17KT 06/M03 A2986 RMK AO1 PRESRR
SLP125 T00561033





000
SAUS41 KCAR 041816
MTR40B
METAR K40B 041816Z AUTO 22006G17KT 150V290 05/M02 A2983 RMK AO1
     SLP115 T00511021 10057 20033 53005





000
SAUS41 KCAR 041816
MTR40B
METAR K40B 041816Z AUTO 22006G17KT 150V290 05/M02 A2983 RMK AO1
     SLP115 T00511021 10057 20033 53005





000
SAUS41 KCAR 041758
MTRGNR
METAR KGNR 041756Z AUTO VRB03KT 07/M03 A2985 RMK AO1 SLP121
T00671028 10067 20033 51005





000
SAUS41 KCAR 041758
MTRGNR
METAR KGNR 041756Z AUTO VRB03KT 07/M03 A2985 RMK AO1 SLP121
T00671028 10067 20033 51005





000
SAUS41 KCAR 041716
MTR40B
METAR K40B 041716Z AUTO 23008G19KT 170V330 05/M01 A2981 RMK AO1 PK
     WND 19028/1638 SLP108 T00541011 50001





000
SAUS41 KCAR 041716
MTR40B
METAR K40B 041716Z AUTO 23008G19KT 170V330 05/M01 A2981 RMK AO1 PK
     WND 19028/1638 SLP108 T00541011 50001





000
SAUS41 KCAR 041657
MTRGNR
METAR KGNR 041656Z AUTO 31009KT 270V010 06/M02 A2984 RMK AO1 SLP117
T00611017





000
SAUS41 KCAR 041616
MTR40B
METAR K40B 041616Z AUTO 22010G23KT 150V290 05/M01 A2982 RMK AO1 PK
     WND 20027/1542 SLP111 T00501011 50009





000
SAUS41 KCAR 041616
MTR40B
METAR K40B 041616Z AUTO 22010G23KT 150V290 05/M01 A2982 RMK AO1 PK
     WND 20027/1542 SLP111 T00501011 50009





000
SAUS41 KCAR 041558
MTRGNR
METAR KGNR 041556Z AUTO 31008G17KT 05/01 A2985 RMK AO1 SLP122
T00500011





000
SAUS41 KCAR 041518
MTR40B
METAR K40B 041518Z AUTO 21010G20KT 180V260 04/00 A2982 RMK AO1
     SLP112 T00391005 51022





000
SAUS41 KCAR 041457
MTRGNR
METAR KGNR 041456Z AUTO 34004KT 05/03 A2984 RMK AO1 SLP118 T00500028
51013





000
SAUS41 KCAR 041416
MTR40B
METAR K40B 041416Z AUTO 20008G16KT 140V270 04/00 A2981 RMK AO1
     SLP107 T00391001 53022





000
SAUS41 KCAR 041358
MTRGNR
METAR KGNR 041356Z AUTO 04003KT 05/03 A2983 RMK AO1 SLP115 T00500033





000
SAUS41 KCAR 041316
MTR40B
METAR K40B 041316Z AUTO VRB06G17KT 04/01 A2979 RMK AO1 SLP102
     T00390008 53022





000
SAUS41 KCAR 041257
MTRGNR
METAR KGNR 041256Z AUTO 00000KT 04/04 A2981 RMK AO1 SLP109 T00390039





000
SAUS41 KCAR 041257
MTRGNR
METAR KGNR 041256Z AUTO 00000KT 04/04 A2981 RMK AO1 SLP109 T00390039





000
SAUS41 KCAR 041219
MTR40B
METAR K40B 041219Z AUTO VRB05G16KT 05/03 A2975 RMK AO1 SLP090
     T00490035 10060 20023 53019 60010 70076





000
SAUS41 KCAR 041157
MTRGNR
METAR KGNR 041156Z AUTO 00000KT 04/03 A2980 RMK AO1 SLP105 60001
70051 T00440033 10056 20028 51026





000
SAUS41 KCAR 041157
MTRGNR
METAR KGNR 041156Z AUTO 00000KT 04/03 A2980 RMK AO1 SLP105 60001
70051 T00440033 10056 20028 51026





000
SAUS41 KCAR 041116
MTR40B
METAR K40B 041116Z AUTO 20012G19KT 180V260 05/03 A2974 RMK AO1
     SLP086 T00520035 53017





000
SAUS41 KCAR 041058
MTRGNR
METAR KGNR 041056Z AUTO 31005KT 04/04 A2978 RMK AO1 SLP099 T00440044





000
SAUS41 KCAR 041058
MTRGNR
METAR KGNR 041056Z AUTO 31005KT 04/04 A2978 RMK AO1 SLP099 T00440044





000
SAUS41 KCAR 041016
MTR40B
METAR K40B 041016Z AUTO 20010G19KT 06/04 A2972 RMK AO1 SLP080
     T00550040 51017 P0001





000
SAUS41 KCAR 040957
MTRGNR
METAR KGNR 040956Z AUTO 04003KT 04/04 A2977 RMK AO1 SLP097 T00440044





000
SAUS41 KCAR 040916
MTR40B
METAR K40B 040916Z AUTO VRB02KT 04/03 A2970 RMK AO1 SLP073
     T00360034 51014 P0005 60009





000
SAUS41 KCAR 040858
MTRGNR
METAR KGNR 040856Z AUTO 20007KT 06/06 A2972 RMK AO1 SLP078 P0001
60001 T00560056 58000





000
SAUS41 KCAR 040858
MTRGNR
METAR KGNR 040856Z AUTO 20007KT 06/06 A2972 RMK AO1 SLP078 P0001
60001 T00560056 58000





000
SAUS41 KCAR 040816
MTR40B
METAR K40B 040816Z AUTO VRB04KT 03/03 A2969 RMK AO1 SLP070
     T00330029 52013 P0004





000
SAUS41 KCAR 040757
MTRGNR
METAR KGNR 040756Z AUTO 18005KT 05/04 A2972 RMK AO1 SLP080 T00500044





000
SAUS41 KCAR 040716
MTR40B
METAR K40B 040716Z AUTO 17013KT 04/03 A2967 RMK AO1 WSHFT 0655
     SLP064 T00370033 55003 P0000





000
SAUS41 KCAR 040658
MTRGNR
METAR KGNR 040656Z AUTO 16003KT 03/03 A2973 RMK AO1 SLP086 T00330033





000
SAUS41 KCAR 040616
MTR40B
METAR K40B 040616Z AUTO 17013G20KT 04/03 A2966 RMK AO1 SLP063
     T00350030 10040 20010 55009 P0000 60003





000
SAUS41 KCAR 040557
MTRGNR
METAR KGNR 040556Z AUTO 00000KT 03/03 A2972 RMK AO1 SLP082 60002
T00280028 10028 20006 56014





000
SAUS41 KCAR 040557
MTRGNR
METAR KGNR 040556Z AUTO 00000KT 03/03 A2972 RMK AO1 SLP082 60002
T00280028 10028 20006 56014





000
SAUS41 KCAR 040516
MTR40B
METAR K40B 040516Z AUTO 17015G19KT 04/03 A2965 RMK AO1 SLP062
     T00350029 400391189 58023





000
SAUS41 KCAR 040457
MTRGNR
METAR KGNR 040456Z AUTO 14004KT 02/02 A2973 RMK AO1 SLP087 T00220022
400221106





000
SAUS41 KCAR 040416
MTR40B
METAR K40B 040416Z AUTO 17013G19KT 03/03 A2968 RMK AO1 SLP072
     T00340028 56022





000
SAUS41 KCAR 040416
MTR40B
METAR K40B 040416Z AUTO 17013G19KT 03/03 A2968 RMK AO1 SLP072
     T00340028 56022





000
SAUS41 KCAR 040357
MTRGNR
METAR KGNR 040356Z AUTO VRB03KT 02/02 A2974 RMK AO1 SLP092 T00220022





000
SAUS41 KCAR 040316
MTR40B
METAR K40B 040316Z AUTO 17012G19KT 03/02 A2969 RMK AO1 SLP078
     T00290024 56031 P0000 60002





000
SAUS41 KCAR 040316
MTR40B
METAR K40B 040316Z AUTO 17012G19KT 03/02 A2969 RMK AO1 SLP078
     T00290024 56031 P0000 60002





000
SAUS41 KCAR 040258
MTRGNR
METAR KGNR 040256Z AUTO 16005KT 02/02 A2976 RMK AO1 SLP099 P0001
60002 T00170017 56029





000
SAUS41 KCAR 040258
MTRGNR
METAR KGNR 040256Z AUTO 16005KT 02/02 A2976 RMK AO1 SLP099 P0001
60002 T00170017 56029





000
SAUS41 KCAR 040216
MTR40B
METAR K40B 040216Z AUTO 16010G17KT 120V200 02/02 A2972 RMK AO1
     SLP089 T00250020 57034 P0002





000
SAUS41 KCAR 040216
MTR40B
METAR K40B 040216Z AUTO 16010G17KT 120V200 02/02 A2972 RMK AO1
     SLP089 T00250020 57034 P0002





000
SAUS41 KCAR 040157
MTRGNR
METAR KGNR 040156Z AUTO 15005KT 02/02 A2978 RMK AO1 SLP104 T00170017





000
SAUS41 KCAR 040116
MTR40B
METAR K40B 040116Z AUTO VRB06KT 02/01 A2974 RMK AO1 SLP100
     T00160014 58033 P0000





000
SAUS41 KCAR 040058
MTRGNR
METAR KGNR 040056Z AUTO 16007G16KT 01/01 A2981 RMK AO1 SLP116 P0001
T00110011





000
SAUS41 KCAR 040058
MTRGNR
METAR KGNR 040056Z AUTO 16007G16KT 01/01 A2981 RMK AO1 SLP116 P0001
T00110011





000
SAUS41 KCAR 040019
MTR40B
METAR K40B 040019Z AUTO 15008G15KT 110V180 01/01 A2978 RMK AO1
     SLP115 T00110008 10011 21079 56031 P0000 60019





000
SAUS41 KCAR 040019
MTR40B
METAR K40B 040019Z AUTO 15008G15KT 110V180 01/01 A2978 RMK AO1
     SLP115 T00110008 10011 21079 56031 P0000 60019





000
SAUS41 KCAR 032357
MTRGNR
METAR KGNR 032356Z AUTO VRB06KT 00/00 A2985 RMK AO1 SLP131 P0001
60023 T00000000 10000 21061 56026





000
SAUS41 KCAR 032319
MTR40B
METAR K40B 032319Z AUTO 15010G21KT 110V180 01/00 A2982 RMK AO1
     SLP128 T00080004 56033





000
SAUS41 KCAR 032258
MTRGNR
METAR KGNR 032256Z AUTO VRB04KT 00/00 A2988 RMK AO1 SLP142 P0001
T00000000





000
SAUS41 KCAR 032258
MTRGNR
METAR KGNR 032256Z AUTO VRB04KT 00/00 A2988 RMK AO1 SLP142 P0001
T00000000





000
SAUS41 KCAR 032216
MTR40B
METAR K40B 032216Z AUTO VRB05G11KT 00/M01 A2984 RMK AO1 SLP139
     T10051008 58031





000
SAUS41 KCAR 032216
MTR40B
METAR K40B 032216Z AUTO VRB05G11KT 00/M01 A2984 RMK AO1 SLP139
     T10051008 58031





000
SAUS41 KCAR 032157
MTRGNR
METAR KGNR 032156Z AUTO 15010G16KT 120V180 M01/M01 A2986 RMK AO1
PRESFR SLP133 P0001 T10111011





000
SAUS41 KCAR 032119
MTR40B
METAR K40B 032119Z AUTO VRB06G12KT M02/M02 A2988 RMK AO1 SLP153
     T10191021 56041 P0005 60018





000
SAUS41 KCAR 032057
MTRGNR
METAR KGNR 032056Z AUTO 16009G17KT M02/M02 A2993 RMK AO1 SLP159
P0002 60020 T10221022 56031





000
SAUS41 KCAR 032019
MTR40B
METAR K40B 032019Z AUTO VRB03KT M06/M07 A2991 RMK AO1 SLP167
     T10621068 56053 P0006





000
SAUS41 KCAR 031958
MTRGNR
METAR KGNR 031956Z AUTO 15007KT M03/M04 A2996 RMK AO1 SLP171 P0010
T10331039





000
SAUS41 KCAR 031916
MTR40B
METAR K40B 031916Z AUTO 08007KT 060V110 M07/M07 A2993 RMK AO1
     PRESRR SLP176 T10671075 58063 P0007





000
SAUS41 KCAR 031857
MTRGNR
METAR KGNR 031856Z AUTO 15006KT M04/M05 A2999 RMK AO1 SLP180 P0008
T10441050





000
SAUS41 KCAR 031857
MTRGNR
METAR KGNR 031856Z AUTO 15006KT M04/M05 A2999 RMK AO1 SLP180 P0008
T10441050





000
SAUS41 KCAR 031819
MTR40B
METAR K40B 031819Z AUTO VRB04KT M08/M09 A3000 RMK AO1 PRESRR SLP201
     T10791092 11079 21118 56068 P0028 60044





000
SAUS41 KCAR 031819
MTR40B
METAR K40B 031819Z AUTO VRB04KT M08/M09 A3000 RMK AO1 PRESRR SLP201
     T10791092 11079 21118 56068 P0028 60044





000
SAUS41 KCAR 031757
MTRGNR
METAR KGNR 031756Z AUTO VRB06KT M06/M07 A3002 RMK AO1 SLP195 P0006
60025 T10611067 11061 21100 56057





000
SAUS41 KCAR 031757
MTRGNR
METAR KGNR 031756Z AUTO VRB06KT M06/M07 A3002 RMK AO1 SLP195 P0006
60025 T10611067 11061 21100 56057





000
SAUS41 KCAR 031719
MTR40B
METAR K40B 031719Z AUTO 06006KT 030V100 M08/M10 A3008 RMK AO1
     SLP227 T10811095 58056 P0005





000
SAUS41 KCAR 031657
MTRGNR
METAR KGNR 031656Z AUTO 14007G17KT M07/M08 A3007 RMK AO1 SLP211
P0007 T10721083





000
SAUS41 KCAR 031657
MTRGNR
METAR KGNR 031656Z AUTO 14007G17KT M07/M08 A3007 RMK AO1 SLP211
P0007 T10721083





000
SAUS41 KCAR 031616
MTR40B
METAR K40B 031616Z AUTO VRB05KT M10/M11 A3012 RMK AO1 PRESRR SLP245
     T10961109 58051 P0004





000
SAUS41 KCAR 031616
MTR40B
METAR K40B 031616Z AUTO VRB05KT M10/M11 A3012 RMK AO1 PRESRR SLP245
     T10961109 58051 P0004





000
SAUS41 KCAR 031557
MTRGNR
METAR KGNR 031556Z AUTO 15007KT 110V180 M08/M09 A3014 RMK AO1 PRESFR
SLP234 P0008 T10831094





000
SAUS41 KCAR 031557
MTRGNR
METAR KGNR 031556Z AUTO 15007KT 110V180 M08/M09 A3014 RMK AO1 PRESFR
SLP234 P0008 T10831094





000
SAUS41 KCAR 031519
MTR40B
METAR K40B 031519Z AUTO VRB04KT M10/M12 A3021 RMK AO1 SLP276
     T11021117 58029 P0003 60007





000
SAUS41 KCAR 031457
MTRGNR
METAR KGNR 031456Z AUTO 16007KT M08/M09 A3020 RMK AO1 SLP255 P0004
60004 T10781089 56028





000
SAUS41 KCAR 031419
MTR40B
METAR K40B 031419Z AUTO VRB02KT M11/M12 A3025 RMK AO1 SLP288
     T11071122 58018 P0002





000
SAUS41 KCAR 031357
MTRGNR
METAR KGNR 031356Z AUTO VRB04KT M08/M10 A3021 RMK AO1 SLP260
T10831100





000
SAUS41 KCAR 031316
MTR40B
METAR K40B 031316Z AUTO VRB04KT M11/M13 A3028 RMK AO1 SLP300
     T11111127 56026 P0002





000
SAUS41 KCAR 031257
MTRGNR
METAR KGNR 031256Z AUTO 12012KT M09/M11 A3024 RMK AO1 SLP268
T10941106





000
SAUS41 KCAR 031257
MTRGNR
METAR KGNR 031256Z AUTO 12012KT M09/M11 A3024 RMK AO1 SLP268
T10941106





000
SAUS41 KCAR 031219
MTR40B
METAR K40B 031219Z AUTO VRB05KT M12/M13 A3030 RMK AO1 SLP308
     T11171133 11118 21189 55024 70002





000
SAUS41 KCAR 031219
MTR40B
METAR K40B 031219Z AUTO VRB05KT M12/M13 A3030 RMK AO1 SLP308
     T11171133 11118 21189 55024 70002





000
SAUS41 KCAR 031157
MTRGNR
METAR KGNR 031156Z AUTO 13004KT M10/M11 A3028 RMK AO1 SLP285 P0004
60005 70005 T11001111 11094 21106 56019





000
SAUS41 KCAR 031157
MTRGNR
METAR KGNR 031156Z AUTO 13004KT M10/M11 A3028 RMK AO1 SLP285 P0004
60005 70005 T11001111 11094 21106 56019





    US Dept of Commerce
    National Oceanic and Atmospheric Administration
    National Weather Service
    1325 East West Highway
    Silver Spring, MD 20910
    Page Author: NWS Internet Services Team
Disclaimer
Information Quality
Credits
Glossary
Privacy Policy
Freedom of Information Act (FOIA)
About Us
Career Opportunities